createdAt,value
2019-02-27T00:01:23.886Z,7.90
2019-02-27T00:03:53.389Z,7.90
2019-02-27T00:06:22.973Z,7.87
2019-02-27T00:08:53.438Z,7.87
2019-02-27T00:11:22.934Z,7.82
2019-02-27T00:13:52.426Z,7.78
2019-02-27T00:16:21.913Z,7.73
2019-02-27T00:18:51.399Z,7.68
2019-02-27T00:21:21.965Z,7.70
2019-02-27T00:23:51.453Z,7.67
2019-02-27T00:26:20.950Z,7.66
2019-02-27T00:28:50.452Z,7.60
2019-02-27T00:31:20.012Z,7.59
2019-02-27T00:33:49.498Z,7.56
2019-02-27T00:36:18.988Z,7.57
2019-02-27T00:38:48.483Z,7.51
2019-02-27T00:41:17.985Z,7.54
2019-02-27T00:43:47.499Z,7.52
2019-02-27T00:46:17.004Z,7.44
2019-02-27T00:48:46.489Z,7.44
2019-02-27T00:51:15.983Z,7.42
2019-02-27T00:53:45.707Z,7.40
2019-02-27T00:56:15.218Z,7.42
2019-02-27T00:58:44.712Z,7.30
2019-02-27T01:01:14.244Z,7.23
2019-02-27T01:03:43.723Z,7.12
2019-02-27T01:06:14.831Z,7.05
2019-02-27T01:08:44.414Z,7.04
2019-02-27T01:11:18.138Z,6.99
2019-02-27T01:13:45.101Z,6.93
2019-02-27T01:16:17.049Z,6.88
2019-02-27T01:18:45.796Z,6.90
2019-02-27T01:21:19.238Z,6.90
2019-02-27T01:23:46.466Z,6.87
2019-02-27T01:26:15.972Z,6.85
2019-02-27T01:28:45.614Z,6.83
2019-02-27T01:31:15.158Z,6.80
2019-02-27T01:33:44.641Z,6.81
2019-02-27T01:36:14.133Z,6.84
2019-02-27T01:38:43.620Z,6.82
2019-02-27T01:41:13.105Z,6.82
2019-02-27T01:43:42.656Z,6.77
2019-02-27T01:46:12.154Z,6.75
2019-02-27T01:48:43.637Z,6.76
2019-02-27T01:51:12.816Z,6.75
2019-02-27T01:53:42.297Z,6.68
2019-02-27T01:56:11.792Z,6.61
2019-02-27T01:58:44.113Z,6.53
2019-02-27T02:01:12.553Z,6.52
2019-02-27T02:03:42.109Z,6.54
2019-02-27T02:06:11.587Z,6.53
2019-02-27T02:08:41.074Z,6.50
2019-02-27T02:11:10.631Z,6.51
2019-02-27T02:14:35.810Z,6.50
2019-02-27T02:17:38.231Z,6.47
2019-02-27T02:20:40.688Z,6.42
2019-02-27T02:23:24.960Z,6.37
2019-02-27T02:26:15.668Z,6.39
2019-02-27T02:29:04.908Z,6.37
2019-02-27T02:31:42.625Z,6.32
2019-02-27T02:34:49.722Z,6.32
2019-02-27T02:37:37.745Z,6.32
2019-02-27T02:41:01.126Z,6.30
2019-02-27T02:44:20.684Z,6.24
2019-02-27T02:47:30.619Z,6.23
2019-02-27T02:50:25.774Z,6.18
2019-02-27T02:53:25.017Z,6.09
2019-02-27T02:56:24.788Z,6.12
2019-02-27T02:59:30.067Z,6.06
2019-02-27T03:02:09.677Z,6.05
2019-02-27T03:05:03.336Z,6.03
2019-02-27T03:08:01.211Z,6.00
2019-02-27T03:11:20.406Z,5.98
2019-02-27T03:14:34.419Z,5.96
2019-02-27T03:17:23.400Z,5.86
2019-02-27T03:20:32.734Z,5.94
2019-02-27T03:23:29.172Z,5.93
2019-02-27T03:26:23.454Z,5.94
2019-02-27T03:29:44.681Z,5.97
2019-02-27T03:32:28.229Z,5.98
2019-02-27T03:35:35.095Z,5.90
2019-02-27T03:38:23.836Z,5.89
2019-02-27T03:41:09.110Z,5.83
2019-02-27T03:44:05.672Z,5.84
2019-02-27T03:46:49.912Z,5.84
2019-02-27T03:50:07.947Z,5.83
2019-02-27T03:53:11.844Z,5.79
2019-02-27T03:56:00.537Z,5.79
2019-02-27T03:59:05.644Z,5.77
2019-02-27T04:02:27.081Z,5.74
2019-02-27T04:05:46.063Z,5.74
2019-02-27T04:08:51.461Z,5.77
2019-02-27T04:11:20.954Z,5.78
2019-02-27T04:13:50.466Z,5.83
2019-02-27T04:16:20.172Z,5.83
2019-02-27T04:18:49.648Z,5.80
2019-02-27T04:21:24.955Z,5.80
2019-02-27T04:23:50.410Z,5.78
2019-02-27T04:26:20.960Z,5.76
2019-02-27T04:28:50.471Z,5.73
2019-02-27T04:31:19.961Z,5.71
2019-02-27T04:33:49.466Z,5.63
2019-02-27T04:36:18.949Z,5.64
2019-02-27T04:38:48.450Z,5.57
2019-02-27T04:41:18.659Z,5.51
2019-02-27T04:43:48.215Z,5.50
2019-02-27T04:46:18.931Z,5.54
2019-02-27T04:48:48.915Z,5.51
2019-02-27T04:51:18.405Z,5.53
2019-02-27T04:53:47.898Z,5.55
2019-02-27T04:56:17.384Z,5.56
2019-02-27T04:58:46.883Z,5.58
2019-02-27T05:01:16.364Z,5.53
2019-02-27T05:03:45.882Z,5.51
2019-02-27T05:06:15.382Z,5.51
2019-02-27T05:08:44.886Z,5.52
2019-02-27T05:11:14.871Z,5.51
2019-02-27T05:13:44.436Z,5.47
2019-02-27T05:16:14.747Z,5.42
2019-02-27T05:18:44.296Z,5.40
2019-02-27T05:21:13.784Z,5.38
2019-02-27T05:23:43.307Z,5.35
2019-02-27T05:26:12.794Z,5.32
2019-02-27T05:28:42.272Z,5.30
2019-02-27T05:31:11.763Z,5.33
2019-02-27T05:33:41.256Z,5.30
2019-02-27T05:36:10.742Z,5.32
2019-02-27T05:38:41.002Z,5.27
2019-02-27T05:41:12.476Z,5.28
2019-02-27T05:43:41.956Z,5.30
2019-02-27T05:46:11.450Z,5.36
2019-02-27T05:48:40.954Z,5.33
2019-02-27T05:51:10.762Z,5.31
2019-02-27T05:53:40.295Z,5.27
2019-02-27T05:56:09.784Z,5.24
2019-02-27T05:58:39.289Z,5.24
2019-02-27T06:01:08.794Z,5.24
2019-02-27T06:03:39.262Z,5.28
2019-02-27T06:06:11.550Z,5.28
2019-02-27T06:08:39.915Z,5.30
2019-02-27T06:11:09.420Z,5.28
2019-02-27T06:13:38.925Z,5.26
2019-02-27T06:16:09.323Z,5.25
2019-02-27T06:18:39.956Z,5.24
2019-02-27T06:21:09.442Z,5.22
2019-02-27T06:23:38.926Z,5.20
2019-02-27T06:26:08.419Z,5.08
2019-02-27T06:28:37.913Z,5.02
2019-02-27T06:31:07.421Z,5.00
2019-02-27T06:33:36.907Z,5.04
2019-02-27T06:36:07.775Z,5.08
2019-02-27T06:38:37.594Z,5.09
2019-02-27T06:41:07.180Z,5.10
2019-02-27T06:43:36.664Z,5.10
2019-02-27T06:46:06.159Z,5.12
2019-02-27T06:48:35.650Z,5.08
2019-02-27T06:51:05.132Z,5.16
2019-02-27T06:53:34.617Z,5.20
2019-02-27T06:56:04.158Z,5.22
2019-02-27T06:58:33.624Z,5.28
2019-02-27T07:01:03.187Z,5.33
2019-02-27T07:03:33.033Z,5.37
2019-02-27T07:06:02.622Z,5.41
2019-02-27T07:08:32.113Z,5.44
2019-02-27T07:11:10.479Z,5.45
2019-02-27T07:13:32.786Z,5.45
2019-02-27T07:16:02.290Z,5.50
2019-02-27T07:18:31.778Z,5.50
2019-02-27T07:23:42.218Z,5.66
2019-02-27T07:26:13.275Z,5.64
2019-02-27T07:28:44.104Z,5.71
2019-02-27T07:31:17.302Z,5.78
2019-02-27T07:33:44.817Z,5.84
2019-02-27T07:36:14.314Z,5.94
2019-02-27T07:38:43.798Z,6.01
2019-02-27T07:41:17.920Z,6.08
2019-02-27T07:43:44.485Z,6.11
2019-02-27T07:46:13.988Z,6.19
2019-02-27T07:48:44.550Z,6.22
2019-02-27T07:51:14.052Z,6.31
2019-02-27T07:53:43.574Z,6.40
2019-02-27T07:56:14.143Z,6.46
2019-02-27T07:58:43.664Z,6.52
2019-02-27T08:01:13.158Z,6.57
2019-02-27T08:03:44.920Z,6.68
2019-02-27T08:06:13.902Z,6.84
2019-02-27T08:08:43.425Z,6.91
2019-02-27T08:11:13.662Z,7.00
2019-02-27T08:13:43.765Z,7.14
2019-02-27T08:16:14.225Z,7.29
2019-02-27T08:18:43.736Z,7.33
2019-02-27T08:21:13.276Z,7.50
2019-02-27T08:23:42.809Z,7.47
2019-02-27T08:26:12.329Z,7.54
2019-02-27T08:28:41.835Z,7.74
2019-02-27T08:31:11.387Z,7.89
2019-02-27T08:33:40.899Z,8.03
2019-02-27T08:36:10.427Z,8.13
2019-02-27T08:38:39.951Z,8.29
2019-02-27T08:41:09.562Z,8.40
2019-02-27T08:43:41.204Z,8.48
2019-02-27T08:46:10.367Z,8.59
2019-02-27T08:48:39.898Z,8.67
2019-02-27T08:51:09.494Z,8.77
2019-02-27T08:53:39.033Z,8.90
2019-02-27T08:56:09.939Z,9.02
2019-02-27T08:58:39.953Z,9.06
2019-02-27T09:01:10.983Z,9.20
2019-02-27T09:03:40.664Z,9.36
2019-02-27T09:06:10.205Z,9.49
2019-02-27T09:08:43.045Z,9.60
2019-02-27T09:11:10.987Z,9.73
2019-02-27T09:13:40.539Z,9.89
2019-02-27T09:16:10.083Z,10.04
2019-02-27T09:18:39.622Z,10.19
2019-02-27T09:21:09.158Z,10.38
2019-02-27T09:23:38.689Z,10.60
2019-02-27T09:26:08.213Z,10.77
2019-02-27T09:28:37.770Z,10.96
2019-02-27T09:31:09.155Z,11.16
2019-02-27T09:33:39.260Z,11.28
2019-02-27T09:36:10.346Z,11.45
2019-02-27T09:38:40.044Z,11.52
2019-02-27T09:41:12.244Z,11.68
2019-02-27T09:43:42.997Z,11.83
2019-02-27T09:46:19.483Z,11.97
2019-02-27T09:48:48.916Z,12.09
2019-02-27T09:51:19.165Z,12.22
2019-02-27T09:53:49.699Z,12.43
2019-02-27T09:56:19.305Z,12.48
2019-02-27T09:58:48.850Z,12.54
2019-02-27T10:01:18.899Z,12.67
2019-02-27T10:03:48.453Z,12.75
2019-02-27T10:06:17.995Z,12.85
2019-02-27T10:08:47.612Z,12.99
2019-02-27T10:11:19.559Z,13.11
2019-02-27T10:13:48.380Z,13.11
2019-02-27T10:16:17.908Z,13.17
2019-02-27T10:18:47.447Z,13.28
2019-02-27T10:21:16.991Z,13.49
2019-02-27T10:23:46.514Z,13.63
2019-02-27T10:26:16.590Z,13.71
2019-02-27T10:28:47.302Z,13.88
2019-02-27T10:31:16.839Z,14.01
2019-02-27T10:33:46.386Z,14.08
2019-02-27T10:36:16.322Z,14.08
2019-02-27T10:38:45.911Z,14.20
2019-02-27T10:41:15.456Z,14.36
2019-02-27T10:43:44.995Z,14.56
2019-02-27T10:46:14.528Z,14.64
2019-02-27T10:48:46.939Z,14.71
2019-02-27T10:51:15.348Z,14.78
2019-02-27T10:53:44.867Z,14.92
2019-02-27T10:56:14.419Z,15.07
2019-02-27T10:58:45.079Z,15.23
2019-02-27T11:01:15.206Z,15.35
2019-02-27T11:03:44.735Z,15.44
2019-02-27T11:06:14.455Z,15.58
2019-02-27T11:08:44.010Z,15.66
2019-02-27T11:11:16.381Z,15.76
2019-02-27T11:13:44.809Z,15.85
2019-02-27T11:16:15.504Z,15.97
2019-02-27T11:18:45.181Z,16.09
2019-02-27T11:21:14.727Z,16.14
2019-02-27T11:23:44.280Z,16.19
2019-02-27T11:26:13.892Z,16.32
2019-02-27T11:28:47.561Z,16.41
2019-02-27T11:31:15.568Z,16.53
2019-02-27T11:33:45.156Z,16.60
2019-02-27T11:36:14.696Z,16.64
2019-02-27T11:38:44.207Z,16.77
2019-02-27T11:41:15.323Z,16.76
2019-02-27T11:43:44.976Z,16.88
2019-02-27T11:46:14.519Z,16.89
2019-02-27T11:48:44.049Z,16.98
2019-02-27T11:51:14.011Z,17.02
2019-02-27T11:53:43.599Z,17.14
2019-02-27T11:56:13.143Z,17.26
2019-02-27T11:58:42.692Z,17.33
2019-02-27T12:01:12.332Z,17.41
2019-02-27T12:03:45.762Z,17.43
2019-02-27T12:06:13.169Z,17.53
2019-02-27T12:08:42.702Z,17.56
2019-02-27T12:11:13.379Z,17.61
2019-02-27T12:13:44.550Z,17.68
2019-02-27T12:16:15.254Z,17.66
2019-02-27T12:18:45.375Z,17.78
2019-02-27T12:21:14.907Z,17.80
2019-02-27T12:23:44.900Z,17.86
2019-02-27T12:26:14.467Z,17.88
2019-02-27T12:28:43.988Z,17.95
2019-02-27T12:31:14.387Z,18.03
2019-02-27T12:33:44.016Z,18.10
2019-02-27T12:36:16.061Z,18.14
2019-02-27T12:38:44.809Z,18.15
2019-02-27T12:41:14.365Z,18.16
2019-02-27T12:43:44.881Z,18.14
2019-02-27T12:46:14.453Z,18.21
2019-02-27T12:48:46.417Z,18.27
2019-02-27T12:51:15.813Z,18.32
2019-02-27T12:53:45.359Z,18.33
2019-02-27T12:56:14.900Z,18.41
2019-02-27T12:58:45.392Z,18.44
2019-02-27T13:01:16.333Z,18.52
2019-02-27T13:03:46.190Z,18.53
2019-02-27T13:06:15.720Z,18.53
2019-02-27T13:08:45.367Z,18.65
2019-02-27T13:11:15.035Z,18.66
2019-02-27T13:13:44.585Z,18.73
2019-02-27T13:16:14.996Z,18.79
2019-02-27T13:18:46.537Z,18.82
2019-02-27T13:21:20.140Z,18.85
2019-02-27T13:23:47.471Z,18.86
2019-02-27T13:26:17.007Z,18.87
2019-02-27T13:28:48.791Z,18.93
2019-02-27T13:31:17.788Z,18.94
2019-02-27T13:33:47.305Z,18.92
2019-02-27T13:36:16.852Z,18.93
2019-02-27T13:38:46.412Z,18.96
2019-02-27T13:41:15.975Z,19.00
2019-02-27T13:43:45.521Z,19.04
2019-02-27T13:46:15.058Z,19.07
2019-02-27T13:48:44.602Z,19.05
2019-02-27T13:51:14.141Z,19.07
2019-02-27T13:53:44.853Z,19.05
2019-02-27T13:56:16.206Z,19.05
2019-02-27T13:58:46.642Z,19.07
2019-02-27T14:01:16.170Z,19.07
2019-02-27T14:03:48.334Z,19.16
2019-02-27T14:06:16.916Z,19.20
2019-02-27T14:08:46.449Z,19.21
2019-02-27T14:11:16.010Z,19.28
2019-02-27T14:13:45.634Z,19.32
2019-02-27T14:16:15.151Z,19.33
2019-02-27T14:18:44.694Z,19.35
2019-02-27T14:21:14.951Z,19.32
2019-02-27T14:23:46.879Z,19.38
2019-02-27T14:26:15.813Z,19.43
2019-02-27T14:28:45.333Z,19.45
2019-02-27T14:31:14.945Z,19.55
2019-02-27T14:33:44.558Z,19.60
2019-02-27T14:36:30.046Z,19.67
2019-02-27T14:38:59.535Z,19.65
2019-02-27T14:41:29.057Z,19.62
2019-02-27T14:43:58.642Z,19.68
2019-02-27T14:46:29.071Z,19.98
2019-02-27T14:48:58.638Z,20.30
2019-02-27T14:51:28.197Z,20.13
2019-02-27T14:53:57.783Z,19.95
2019-02-27T14:56:30.147Z,20.13
2019-02-27T14:58:58.584Z,20.30
2019-02-27T15:01:28.219Z,20.06
2019-02-27T15:04:00.463Z,19.94
2019-02-27T15:06:28.992Z,19.88
2019-02-27T15:09:03.091Z,19.83
2019-02-27T15:11:32.368Z,19.73
2019-02-27T15:14:01.912Z,19.65
2019-02-27T15:16:31.841Z,19.63
2019-02-27T15:19:01.366Z,19.58
2019-02-27T15:21:31.858Z,19.62
2019-02-27T15:24:02.173Z,19.54
2019-02-27T15:26:32.816Z,19.48
2019-02-27T15:29:05.710Z,19.47
2019-02-27T15:31:34.621Z,19.49
2019-02-27T15:34:04.197Z,19.45
2019-02-27T15:36:33.745Z,19.43
2019-02-27T15:39:04.591Z,19.42
2019-02-27T15:41:35.977Z,19.38
2019-02-27T15:44:05.827Z,19.34
2019-02-27T15:46:35.522Z,19.33
2019-02-27T15:49:05.156Z,19.24
2019-02-27T15:51:34.677Z,19.21
2019-02-27T15:54:04.273Z,19.19
2019-02-27T15:56:33.809Z,19.09
2019-02-27T15:59:06.304Z,19.04
2019-02-27T16:01:34.644Z,18.98
2019-02-27T16:04:04.210Z,18.94
2019-02-27T16:06:33.749Z,18.89
2019-02-27T16:09:03.601Z,18.84
2019-02-27T16:11:34.762Z,18.78
2019-02-27T16:14:09.274Z,18.73
2019-02-27T16:16:35.690Z,18.66
2019-02-27T16:19:07.992Z,18.64
2019-02-27T16:21:36.545Z,18.62
2019-02-27T16:24:06.312Z,18.52
2019-02-27T16:26:35.863Z,18.25
2019-02-27T16:29:05.399Z,18.33
2019-02-27T16:31:37.094Z,18.26
2019-02-27T16:34:06.153Z,18.17
2019-02-27T16:36:36.598Z,18.12
2019-02-27T16:39:07.400Z,18.06
2019-02-27T16:41:39.513Z,17.98
2019-02-27T16:44:11.071Z,17.91
2019-02-27T16:46:44.556Z,17.80
2019-02-27T16:49:12.581Z,17.73
2019-02-27T16:51:42.141Z,17.65
2019-02-27T16:54:11.661Z,17.62
2019-02-27T16:56:46.537Z,17.56
2019-02-27T16:59:12.493Z,17.49
2019-02-27T17:01:42.023Z,17.38
2019-02-27T17:04:11.549Z,17.28
2019-02-27T17:06:41.089Z,17.24
2019-02-27T17:09:13.118Z,17.11
2019-02-27T17:11:42.220Z,17.00
2019-02-27T17:14:11.744Z,16.94
2019-02-27T17:16:44.505Z,16.82
2019-02-27T17:19:12.494Z,16.77
2019-02-27T17:21:42.026Z,17.03
2019-02-27T17:24:11.545Z,17.49
2019-02-27T17:26:41.189Z,17.89
2019-02-27T17:29:10.787Z,18.15
2019-02-27T17:31:48.979Z,18.35
2019-02-27T17:34:13.785Z,18.49
2019-02-27T17:36:43.044Z,18.56
2019-02-27T17:39:12.588Z,18.28
2019-02-27T17:41:44.668Z,17.72
2019-02-27T17:44:13.477Z,17.32
2019-02-27T17:46:43.017Z,17.01
2019-02-27T17:49:12.559Z,16.73
2019-02-27T17:51:42.188Z,16.53
2019-02-27T17:54:11.723Z,16.32
2019-02-27T17:56:41.493Z,16.14
2019-02-27T17:59:11.020Z,15.97
2019-02-27T18:01:40.560Z,15.80
2019-02-27T18:04:14.329Z,15.63
2019-02-27T18:06:41.324Z,15.48
2019-02-27T18:09:10.909Z,15.32
2019-02-27T18:11:40.512Z,15.19
2019-02-27T18:14:10.219Z,15.12
2019-02-27T18:16:39.879Z,15.02
2019-02-27T18:19:09.419Z,14.90
2019-02-27T18:21:38.954Z,14.81
2019-02-27T18:24:08.502Z,14.74
2019-02-27T18:26:38.063Z,14.67
2019-02-27T18:29:08.303Z,14.57
2019-02-27T18:31:37.806Z,14.45
2019-02-27T18:34:07.341Z,14.38
2019-02-27T18:36:42.770Z,14.32
2019-02-27T18:39:08.165Z,14.25
2019-02-27T18:41:39.777Z,14.21
2019-02-27T18:44:09.384Z,14.14
2019-02-27T18:46:38.923Z,14.07
2019-02-27T18:49:08.454Z,14.05
2019-02-27T18:51:37.995Z,14.00
2019-02-27T18:54:07.603Z,13.96
2019-02-27T18:56:40.264Z,13.84
2019-02-27T18:59:08.477Z,13.81
2019-02-27T19:01:38.032Z,13.72
2019-02-27T19:04:07.555Z,13.67
2019-02-27T19:06:37.096Z,13.53
2019-02-27T19:09:06.970Z,13.49
2019-02-27T19:11:37.367Z,13.50
2019-02-27T19:14:06.929Z,13.42
2019-02-27T19:16:36.471Z,13.41
2019-02-27T19:19:06.294Z,13.35
2019-02-27T19:21:35.864Z,13.25
2019-02-27T19:24:05.400Z,13.14
2019-02-27T19:26:34.922Z,13.05
2019-02-27T19:29:04.532Z,13.00
2019-02-27T19:31:34.077Z,13.12
2019-02-27T19:34:03.742Z,13.16
2019-02-27T19:36:33.288Z,13.16
2019-02-27T19:39:03.713Z,13.24
2019-02-27T19:41:39.011Z,13.33
2019-02-27T19:44:06.991Z,13.19
2019-02-27T19:46:36.555Z,13.31
2019-02-27T19:49:06.182Z,13.35
2019-02-27T19:51:35.742Z,13.31
2019-02-27T19:54:05.352Z,13.28
2019-02-27T19:56:35.561Z,13.20
2019-02-27T19:59:05.773Z,13.08
2019-02-27T20:01:35.321Z,13.02
2019-02-27T20:04:09.008Z,12.94
2019-02-27T20:06:36.159Z,12.89
2019-02-27T20:09:06.600Z,12.76
2019-02-27T20:11:40.245Z,12.76
2019-02-27T20:14:09.095Z,12.67
2019-02-27T20:16:38.719Z,12.62
2019-02-27T20:19:08.253Z,12.63
2019-02-27T20:21:37.864Z,12.56
2019-02-27T20:24:14.199Z,12.44
2019-02-27T20:26:44.395Z,12.38
2019-02-27T20:29:09.929Z,12.29
2019-02-27T20:31:39.500Z,12.26
2019-02-27T20:34:11.622Z,12.23
2019-02-27T20:36:40.321Z,12.17
2019-02-27T20:39:09.928Z,12.11
2019-02-27T20:41:43.815Z,12.16
2019-02-27T20:44:12.153Z,12.15
2019-02-27T20:46:41.697Z,12.15
2019-02-27T20:49:14.021Z,12.18
2019-02-27T20:51:42.482Z,12.20
2019-02-27T20:54:12.024Z,12.22
2019-02-27T20:56:41.551Z,12.31
2019-02-27T20:59:11.077Z,12.43
2019-02-27T21:01:46.696Z,12.45
2019-02-27T21:04:11.841Z,12.49
2019-02-27T21:06:47.272Z,12.44
2019-02-27T21:09:12.758Z,12.28
2019-02-27T21:11:42.337Z,12.19
2019-02-27T21:14:11.935Z,12.17
2019-02-27T21:16:43.131Z,12.14
2019-02-27T21:19:13.266Z,12.19
2019-02-27T21:21:42.801Z,12.22
2019-02-27T21:24:12.371Z,12.24
2019-02-27T21:26:41.879Z,12.32
2019-02-27T21:29:11.430Z,12.39
2019-02-27T21:31:41.041Z,12.32
2019-02-27T21:34:10.607Z,12.47
2019-02-27T21:36:40.147Z,12.45
2019-02-27T21:39:09.686Z,12.41
2019-02-27T21:41:42.308Z,12.41
2019-02-27T21:44:12.258Z,12.35
2019-02-27T21:46:45.997Z,12.31
2019-02-27T21:49:13.123Z,12.29
2019-02-27T21:51:47.884Z,12.25
2019-02-27T21:54:13.878Z,12.28
2019-02-27T21:56:43.423Z,12.21
2019-02-27T21:59:12.957Z,12.17
2019-02-27T22:01:42.565Z,12.17
2019-02-27T22:04:12.121Z,12.13
2019-02-27T22:06:41.631Z,12.17
2019-02-27T22:09:13.619Z,12.22
2019-02-27T22:11:42.628Z,12.27
2019-02-27T22:14:12.189Z,12.25
2019-02-27T22:16:42.206Z,12.27
2019-02-27T22:19:11.762Z,12.25
2019-02-27T22:21:41.335Z,12.21
2019-02-27T22:24:10.874Z,12.23
2019-02-27T22:26:40.402Z,12.15
2019-02-27T22:29:09.950Z,12.05
2019-02-27T22:31:41.261Z,12.07
2019-02-27T22:34:13.006Z,11.59
2019-02-27T22:36:44.052Z,11.94
2019-02-27T22:39:13.844Z,11.84
2019-02-27T22:41:43.378Z,11.80
2019-02-27T22:44:13.921Z,11.85
2019-02-27T22:46:43.507Z,11.76
2019-02-27T22:49:13.031Z,11.66
2019-02-27T22:51:45.169Z,11.54
2019-02-27T22:54:13.786Z,11.47
2019-02-27T22:56:43.314Z,11.55
2019-02-27T22:59:12.813Z,11.46
2019-02-27T23:01:50.519Z,11.39
2019-02-27T23:04:19.685Z,11.36
2019-02-27T23:06:49.279Z,11.32
2019-02-27T23:09:19.769Z,11.26
2019-02-27T23:11:49.437Z,11.14
2019-02-27T23:14:19.821Z,11.08
2019-02-27T23:16:50.413Z,11.04
2019-02-27T23:19:19.999Z,11.06
2019-02-27T23:21:49.522Z,11.00
2019-02-27T23:24:19.039Z,11.05
2019-02-27T23:26:54.162Z,11.09
2019-02-27T23:29:19.774Z,11.09
2019-02-27T23:31:49.324Z,11.09
2019-02-27T23:34:18.826Z,11.14
2019-02-27T23:36:48.349Z,11.16
2019-02-27T23:39:17.870Z,11.15
2019-02-27T23:41:47.407Z,11.15
2019-02-27T23:44:16.923Z,11.18
2019-02-27T23:46:51.365Z,11.25
2019-02-27T23:49:17.670Z,11.28
2019-02-27T23:51:48.445Z,11.24
2019-02-27T23:54:18.054Z,11.25
2019-02-27T23:56:47.576Z,11.23
2019-02-27T23:59:17.094Z,11.21
